22.4°F
Current conditions from King Hill
Updated every 5 minutes
 
  Wednesday April 16, 2014

Station Historical Data
Daily Summary for May 10, 2011 Units:  Both    English   Metric
« Previous Day
Next Day »
Daily Weekly Monthly Yearly Custom
  High: Low: Average:
Temperature: 65.9 °F /  18.8 °C 36.3 °F /  2.4 °C 52 °F /  11.1 °C
Dew Point: 46.1 °F /  7.8 °C 20.7 °F /  -6.3 °C 35.8 °F /  2.1 °C
Humidity: 72% 37% 55%
Wind Speed: 10.0mph /  16.1km/h - 3.8mph /  6.1km/h
Wind Gust: 21.0mph /  33.8km/h - -
Wind- - SSE
Pressure: 30.11 in /  1019.5 hPa 30.02 in /  1016.5 hPa -
Precipitation: 0.00 in /  0 mm    
Historical Graphs
 
 
Tabular Data for May 10, 2011
Time Temperature Dew Point Pressure Wind Wind Speed Wind Gust Humidity Daily Rainfall
00:04 45.8 °F /  7.7 °C 21.6 °F /  -5.8 °C 30.03in /  1016.8hPa North 1.0mph /  1.6km/h 7.0mph /  11.3km/h 38% 0.00in /  0mm
00:10 45.6 °F /  7.6 °C 23.3 °F /  -4.8 °C 30.03in /  1016.8hPa Calm   7.0mph /  11.3km/h 41% 0.00in /  0mm
00:14 45.5 °F /  7.5 °C 20.7 °F /  -6.3 °C 30.03in /  1016.8hPa NNE 1.0mph /  1.6km/h 5.0mph /  8km/h 37% 0.00in /  0mm
00:19 45.5 °F /  7.5 °C 21.4 °F /  -5.9 °C 30.03in /  1016.8hPa NE 1.0mph /  1.6km/h 7.0mph /  11.3km/h 38% 0.00in /  0mm
00:25 45.8 °F /  7.7 °C 21.6 °F /  -5.8 °C 30.04in /  1017.2hPa Calm   7.0mph /  11.3km/h 38% 0.00in /  0mm
00:29 45.7 °F /  7.6 °C 22.8 °F /  -5.1 °C 30.04in /  1017.2hPa Calm   6.0mph /  9.7km/h 40% 0.00in /  0mm
00:34 45.6 °F /  7.6 °C 20.8 °F /  -6.2 °C 30.04in /  1017.2hPa NNE 2.0mph /  3.2km/h 8.0mph /  12.9km/h 37% 0.00in /  0mm
00:40 45.7 °F /  7.6 °C 21.5 °F /  -5.8 °C 30.04in /  1017.2hPa Calm   8.0mph /  12.9km/h 38% 0.00in /  0mm
00:44 45.4 °F /  7.4 °C 23.1 °F /  -4.9 °C 30.04in /  1017.2hPa Calm   5.0mph /  8km/h 41% 0.00in /  0mm
00:50 45.0 °F /  7.2 °C 22.1 °F /  -5.5 °C 30.04in /  1017.2hPa Calm   2.0mph /  3.2km/h 40% 0.00in /  0mm
00:54 44.6 °F /  7 °C 22.9 °F /  -5.1 °C 30.04in /  1017.2hPa Calm   2.0mph /  3.2km/h 42% 0.00in /  0mm
00:59 44.2 °F /  6.8 °C 23.7 °F /  -4.6 °C 30.04in /  1017.2hPa Calm   1.0mph /  1.6km/h 44% 0.00in /  0mm
01:04 43.7 °F /  6.5 °C 22.7 °F /  -5.2 °C 30.04in /  1017.2hPa Calm   2.0mph /  3.2km/h 43% 0.00in /  0mm
01:10 43.6 °F /  6.4 °C 26.2 °F /  -3.2 °C 30.04in /  1017.2hPa Calm   2.0mph /  3.2km/h 50% 0.00in /  0mm
01:14 43.4 °F /  6.3 °C 24.0 °F /  -4.4 °C 30.05in /  1017.5hPa Calm   1.0mph /  1.6km/h 46% 0.00in /  0mm
01:20 43.0 °F /  6.1 °C 23.6 °F /  -4.7 °C 30.05in /  1017.5hPa Calm   3.0mph /  4.8km/h 46% 0.00in /  0mm
01:24 42.7 °F /  5.9 °C 24.4 °F /  -4.2 °C 30.04in /  1017.2hPa Calm   3.0mph /  4.8km/h 48% 0.00in /  0mm
01:30 42.5 °F /  5.8 °C 25.2 °F /  -3.8 °C 30.04in /  1017.2hPa Calm   1.0mph /  1.6km/h 50% 0.00in /  0mm
01:35 42.4 °F /  5.8 °C 24.1 °F /  -4.4 °C 30.04in /  1017.2hPa Calm   1.0mph /  1.6km/h 48% 0.00in /  0mm
01:39 42.1 °F /  5.6 °C 24.3 °F /  -4.3 °C 30.05in /  1017.5hPa Calm   1.0mph /  1.6km/h 49% 0.00in /  0mm
01:44 42.0 °F /  5.6 °C 23.2 °F /  -4.9 °C 30.04in /  1017.2hPa Calm   1.0mph /  1.6km/h 47% 0.00in /  0mm
01:50 41.9 °F /  5.5 °C 24.6 °F /  -4.1 °C 30.04in /  1017.2hPa Calm   3.0mph /  4.8km/h 50% 0.00in /  0mm
01:54 41.8 °F /  5.4 °C 25.9 °F /  -3.4 °C 30.04in /  1017.2hPa Calm   3.0mph /  4.8km/h 53% 0.00in /  0mm
01:59 42.1 °F /  5.6 °C 25.3 °F /  -3.7 °C 30.03in /  1016.8hPa East 1.0mph /  1.6km/h 4.0mph /  6.4km/h 51% 0.00in /  0mm
02:04 42.3 °F /  5.7 °C 25.0 °F /  -3.9 °C 30.03in /  1016.8hPa Calm   4.0mph /  6.4km/h 50% 0.00in /  0mm
02:10 42.4 °F /  5.8 °C 23.6 °F /  -4.7 °C 30.03in /  1016.8hPa Calm   2.0mph /  3.2km/h 47% 0.00in /  0mm
02:14 42.5 °F /  5.8 °C 24.7 °F /  -4.1 °C 30.03in /  1016.8hPa Calm   2.0mph /  3.2km/h 49% 0.00in /  0mm
02:19 42.3 °F /  5.7 °C 24.5 °F /  -4.2 °C 30.03in /  1016.8hPa ENE 1.0mph /  1.6km/h 4.0mph /  6.4km/h 49% 0.00in /  0mm
02:24 42.0 °F /  5.6 °C 25.6 °F /  -3.6 °C 30.03in /  1016.8hPa Calm   4.0mph /  6.4km/h 52% 0.00in /  0mm
02:30 41.6 °F /  5.3 °C 25.3 °F /  -3.7 °C 30.03in /  1016.8hPa Calm   1.0mph /  1.6km/h 52% 0.00in /  0mm
02:35 40.9 °F /  4.9 °C 26.0 °F /  -3.3 °C 30.02in /  1016.5hPa Calm   1.0mph /  1.6km/h 55% 0.00in /  0mm
02:45 40.6 °F /  4.8 °C 26.1 °F /  -3.3 °C 30.02in /  1016.5hPa Calm   4.0mph /  6.4km/h 56% 0.00in /  0mm
02:49 40.5 °F /  4.7 °C 26.0 °F /  -3.3 °C 30.02in /  1016.5hPa Calm   3.0mph /  4.8km/h 56% 0.00in /  0mm
02:54 40.4 °F /  4.7 °C 25.5 °F /  -3.6 °C 30.02in /  1016.5hPa Calm   3.0mph /  4.8km/h 55% 0.00in /  0mm
02:59 40.3 °F /  4.6 °C 25.0 °F /  -3.9 °C 30.02in /  1016.5hPa Calm   2.0mph /  3.2km/h 54% 0.00in /  0mm
03:05 40.2 °F /  4.6 °C 24.9 °F /  -3.9 °C 30.02in /  1016.5hPa Calm   2.0mph /  3.2km/h 54% 0.00in /  0mm
03:09 40.4 °F /  4.7 °C 25.9 °F /  -3.4 °C 30.02in /  1016.5hPa Calm   2.0mph /  3.2km/h 56% 0.00in /  0mm
03:14 40.2 °F /  4.6 °C 25.8 °F /  -3.4 °C 30.02in /  1016.5hPa Calm     56% 0.00in /  0mm
03:19 39.8 °F /  4.3 °C 25.8 °F /  -3.4 °C 30.02in /  1016.5hPa Calm     57% 0.00in /  0mm
03:24 39.5 °F /  4.2 °C 26.8 °F /  -2.9 °C 30.02in /  1016.5hPa Calm     60% 0.00in /  0mm
03:29 39.3 °F /  4.1 °C 27.0 °F /  -2.8 °C 30.02in /  1016.5hPa Calm   1.0mph /  1.6km/h 61% 0.00in /  0mm
03:34 39.2 °F /  4 °C 26.5 °F /  -3.1 °C 30.03in /  1016.8hPa Calm   1.0mph /  1.6km/h 60% 0.00in /  0mm
03:39 38.9 °F /  3.8 °C 26.2 °F /  -3.2 °C 30.03in /  1016.8hPa Calm     60% 0.00in /  0mm
03:44 38.9 °F /  3.8 °C 27.0 °F /  -2.8 °C 30.03in /  1016.8hPa Calm     62% 0.00in /  0mm
03:49 39.0 °F /  3.9 °C 26.7 °F /  -2.9 °C 30.03in /  1016.8hPa Calm     61% 0.00in /  0mm
03:54 39.1 °F /  3.9 °C 26.8 °F /  -2.9 °C 30.03in /  1016.8hPa Calm   1.0mph /  1.6km/h 61% 0.00in /  0mm
03:59 39.2 °F /  4 °C 26.9 °F /  -2.8 °C 30.04in /  1017.2hPa Calm   1.0mph /  1.6km/h 61% 0.00in /  0mm
04:04 39.0 °F /  3.9 °C 27.1 °F /  -2.7 °C 30.04in /  1017.2hPa Calm     62% 0.00in /  0mm
04:10 38.9 °F /  3.8 °C 28.1 °F /  -2.2 °C 30.04in /  1017.2hPa Calm   1.0mph /  1.6km/h 65% 0.00in /  0mm
04:14 38.5 °F /  3.6 °C 27.8 °F /  -2.3 °C 30.04in /  1017.2hPa Calm   1.0mph /  1.6km/h 65% 0.00in /  0mm
04:19 38.3 °F /  3.5 °C 27.2 °F /  -2.7 °C 30.04in /  1017.2hPa Calm   1.0mph /  1.6km/h 64% 0.00in /  0mm
04:25 38.1 °F /  3.4 °C 26.6 °F /  -3 °C 30.04in /  1017.2hPa Calm     63% 0.00in /  0mm
04:29 38.2 °F /  3.4 °C 27.1 °F /  -2.7 °C 30.04in /  1017.2hPa Calm     64% 0.00in /  0mm
04:35 38.2 °F /  3.4 °C 27.5 °F /  -2.5 °C 30.04in /  1017.2hPa Calm     65% 0.00in /  0mm
04:40 38.0 °F /  3.3 °C 27.3 °F /  -2.6 °C 30.04in /  1017.2hPa Calm     65% 0.00in /  0mm
04:44 38.1 °F /  3.4 °C 27.4 °F /  -2.6 °C 30.05in /  1017.5hPa Calm     65% 0.00in /  0mm
04:49 38.0 °F /  3.3 °C 27.7 °F /  -2.4 °C 30.05in /  1017.5hPa Calm     66% 0.00in /  0mm
04:54 37.9 °F /  3.3 °C 27.6 °F /  -2.4 °C 30.05in /  1017.5hPa Calm     66% 0.00in /  0mm
04:59 37.9 °F /  3.3 °C 27.2 °F /  -2.7 °C 30.05in /  1017.5hPa Calm   2.0mph /  3.2km/h 65% 0.00in /  0mm
05:05 37.7 °F /  3.2 °C 27.0 °F /  -2.8 °C 30.05in /  1017.5hPa Calm   2.0mph /  3.2km/h 65% 0.00in /  0mm
05:09 37.4 °F /  3 °C 27.1 °F /  -2.7 °C 30.06in /  1017.8hPa Calm   1.0mph /  1.6km/h 66% 0.00in /  0mm
05:15 37.1 °F /  2.8 °C 27.2 °F /  -2.7 °C 30.06in /  1017.8hPa Calm   1.0mph /  1.6km/h 67% 0.00in /  0mm
05:19 37.3 °F /  2.9 °C 27.4 °F /  -2.6 °C 30.06in /  1017.8hPa Calm   1.0mph /  1.6km/h 67% 0.00in /  0mm
05:24 37.1 °F /  2.8 °C 27.5 °F /  -2.5 °C 30.06in /  1017.8hPa Calm   1.0mph /  1.6km/h 68% 0.00in /  0mm
05:29 36.8 °F /  2.7 °C 27.2 °F /  -2.7 °C 30.06in /  1017.8hPa Calm     68% 0.00in /  0mm
05:34 36.4 °F /  2.4 °C 26.9 °F /  -2.8 °C 30.07in /  1018.2hPa Calm     68% 0.00in /  0mm
05:39 36.3 °F /  2.4 °C 27.1 °F /  -2.7 °C 30.07in /  1018.2hPa Calm     69% 0.00in /  0mm
05:44 36.6 °F /  2.6 °C 27.7 °F /  -2.4 °C 30.07in /  1018.2hPa Calm   1.0mph /  1.6km/h 70% 0.00in /  0mm
05:49 36.7 °F /  2.6 °C 28.2 °F /  -2.1 °C 30.08in /  1018.5hPa Calm   1.0mph /  1.6km/h 71% 0.00in /  0mm
05:55 36.8 °F /  2.7 °C 27.9 °F /  -2.3 °C 30.08in /  1018.5hPa Calm   2.0mph /  3.2km/h 70% 0.00in /  0mm
06:04 36.8 °F /  2.7 °C 27.6 °F /  -2.4 °C 30.08in /  1018.5hPa Calm     69% 0.00in /  0mm
06:09 36.6 °F /  2.6 °C 27.7 °F /  -2.4 °C 30.09in /  1018.8hPa Calm     70% 0.00in /  0mm
06:14 36.5 °F /  2.5 °C 28.0 °F /  -2.2 °C 30.09in /  1018.8hPa Calm   1.0mph /  1.6km/h 71% 0.00in /  0mm
06:19 36.6 °F /  2.6 °C 28.1 °F /  -2.2 °C 30.09in /  1018.8hPa Calm   1.0mph /  1.6km/h 71% 0.00in /  0mm
06:24 36.9 °F /  2.7 °C 28.0 °F /  -2.2 °C 30.09in /  1018.8hPa Calm   2.0mph /  3.2km/h 70% 0.00in /  0mm
06:29 37.5 °F /  3.1 °C 27.9 °F /  -2.3 °C 30.09in /  1018.8hPa Calm   3.0mph /  4.8km/h 68% 0.00in /  0mm
06:34 38.1 °F /  3.4 °C 28.1 °F /  -2.2 °C 30.09in /  1018.8hPa NNE 1.0mph /  1.6km/h 4.0mph /  6.4km/h 67% 0.00in /  0mm
06:39 38.8 °F /  3.8 °C 28.0 °F /  -2.2 °C 30.09in /  1018.8hPa Calm   5.0mph /  8km/h 65% 0.00in /  0mm
06:44 39.2 °F /  4 °C 28.0 °F /  -2.2 °C 30.09in /  1018.8hPa Calm   5.0mph /  8km/h 64% 0.00in /  0mm
06:49 39.6 °F /  4.2 °C 28.0 °F /  -2.2 °C 30.10in /  1019.2hPa Calm   4.0mph /  6.4km/h 63% 0.00in /  0mm
06:54 40.0 °F /  4.4 °C 28.0 °F /  -2.2 °C 30.10in /  1019.2hPa ENE 1.0mph /  1.6km/h 4.0mph /  6.4km/h 62% 0.00in /  0mm
06:59 40.4 °F /  4.7 °C 28.4 °F /  -2 °C 30.10in /  1019.2hPa NE 2.0mph /  3.2km/h 5.0mph /  8km/h 62% 0.00in /  0mm
07:04 40.6 °F /  4.8 °C 28.6 °F /  -1.9 °C 30.10in /  1019.2hPa Calm   5.0mph /  8km/h 62% 0.00in /  0mm
07:09 41.0 °F /  5 °C 29.0 °F /  -1.7 °C 30.10in /  1019.2hPa North 1.0mph /  1.6km/h 8.0mph /  12.9km/h 62% 0.00in /  0mm
07:14 41.6 °F /  5.3 °C 29.2 °F /  -1.6 °C 30.10in /  1019.2hPa NNE 1.0mph /  1.6km/h 8.0mph /  12.9km/h 61% 0.00in /  0mm
07:20 42.3 °F /  5.7 °C 30.2 °F /  -1 °C 30.10in /  1019.2hPa Calm   5.0mph /  8km/h 62% 0.00in /  0mm
07:24 43.1 °F /  6.2 °C 29.7 °F /  -1.3 °C 30.10in /  1019.2hPa NNE 1.0mph /  1.6km/h 5.0mph /  8km/h 59% 0.00in /  0mm
07:29 43.8 °F /  6.6 °C 30.0 °F /  -1.1 °C 30.10in /  1019.2hPa Calm   5.0mph /  8km/h 58% 0.00in /  0mm
07:34 44.6 °F /  7 °C 30.7 °F /  -0.7 °C 30.10in /  1019.2hPa Calm   5.0mph /  8km/h 58% 0.00in /  0mm
07:40 45.3 °F /  7.4 °C 30.5 °F /  -0.8 °C 30.10in /  1019.2hPa NNE 2.0mph /  3.2km/h 6.0mph /  9.7km/h 56% 0.00in /  0mm
07:49 46.2 °F /  7.9 °C 30.9 °F /  -0.6 °C 30.10in /  1019.2hPa North 1.0mph /  1.6km/h 5.0mph /  8km/h 55% 0.00in /  0mm
07:54 46.5 °F /  8.1 °C 32.5 °F /  0.3 °C 30.10in /  1019.2hPa Calm   6.0mph /  9.7km/h 58% 0.00in /  0mm
07:59 46.9 °F /  8.3 °C 30.7 °F /  -0.7 °C 30.10in /  1019.2hPa NNE 1.0mph /  1.6km/h 8.0mph /  12.9km/h 53% 0.00in /  0mm
08:04 47.3 °F /  8.5 °C 32.0 °F /  0 °C 30.10in /  1019.2hPa Calm   8.0mph /  12.9km/h 55% 0.00in /  0mm
08:09 47.8 °F /  8.8 °C 32.9 °F /  0.5 °C 30.10in /  1019.2hPa North 1.0mph /  1.6km/h 6.0mph /  9.7km/h 56% 0.00in /  0mm
08:14 48.1 °F /  8.9 °C 32.7 °F /  0.4 °C 30.10in /  1019.2hPa Calm   6.0mph /  9.7km/h 55% 0.00in /  0mm
08:19 48.7 °F /  9.3 °C 32.8 °F /  0.4 °C 30.10in /  1019.2hPa Calm   6.0mph /  9.7km/h 54% 0.00in /  0mm
08:24 48.8 °F /  9.3 °C 32.0 °F /  0 °C 30.10in /  1019.2hPa North 1.0mph /  1.6km/h 6.0mph /  9.7km/h 52% 0.00in /  0mm
08:29 48.7 °F /  9.3 °C 32.3 °F /  0.2 °C 30.10in /  1019.2hPa NNW 2.0mph /  3.2km/h 5.0mph /  8km/h 53% 0.00in /  0mm
08:34 48.6 °F /  9.2 °C 31.8 °F /  -0.1 °C 30.10in /  1019.2hPa NNW 2.0mph /  3.2km/h 6.0mph /  9.7km/h 52% 0.00in /  0mm
08:39 49.0 °F /  9.4 °C 33.5 °F /  0.8 °C 30.10in /  1019.2hPa NNW 1.0mph /  1.6km/h 6.0mph /  9.7km/h 55% 0.00in /  0mm
08:45 49.5 °F /  9.7 °C 32.6 °F /  0.3 °C 30.10in /  1019.2hPa NW 1.0mph /  1.6km/h 6.0mph /  9.7km/h 52% 0.00in /  0mm
08:49 49.9 °F /  9.9 °C 33.0 °F /  0.6 °C 30.10in /  1019.2hPa North 1.0mph /  1.6km/h 6.0mph /  9.7km/h 52% 0.00in /  0mm
08:54 50.2 °F /  10.1 °C 33.7 °F /  0.9 °C 30.10in /  1019.2hPa North 2.0mph /  3.2km/h 6.0mph /  9.7km/h 53% 0.00in /  0mm
08:59 50.5 °F /  10.3 °C 33.5 °F /  0.8 °C 30.10in /  1019.2hPa North 1.0mph /  1.6km/h 6.0mph /  9.7km/h 52% 0.00in /  0mm
09:04 50.7 °F /  10.4 °C 33.7 °F /  0.9 °C 30.10in /  1019.2hPa North 2.0mph /  3.2km/h 6.0mph /  9.7km/h 52% 0.00in /  0mm
09:09 51.0 °F /  10.6 °C 34.9 °F /  1.6 °C 30.10in /  1019.2hPa NNW 1.0mph /  1.6km/h 6.0mph /  9.7km/h 54% 0.00in /  0mm
09:14 51.3 °F /  10.7 °C 34.3 °F /  1.3 °C 30.10in /  1019.2hPa NNE 1.0mph /  1.6km/h 7.0mph /  11.3km/h 52% 0.00in /  0mm
09:19 51.9 °F /  11.1 °C 34.8 °F /  1.6 °C 30.10in /  1019.2hPa NNE 2.0mph /  3.2km/h 7.0mph /  11.3km/h 52% 0.00in /  0mm
09:24 52.4 °F /  11.3 °C 34.3 °F /  1.3 °C 30.10in /  1019.2hPa NNW 3.0mph /  4.8km/h 8.0mph /  12.9km/h 50% 0.00in /  0mm
09:29 52.4 °F /  11.3 °C 34.3 °F /  1.3 °C 30.10in /  1019.2hPa North 1.0mph /  1.6km/h 8.0mph /  12.9km/h 50% 0.00in /  0mm
09:34 52.7 °F /  11.5 °C 34.6 °F /  1.4 °C 30.10in /  1019.2hPa North 1.0mph /  1.6km/h 6.0mph /  9.7km/h 50% 0.00in /  0mm
09:39 53.5 °F /  11.9 °C 36.8 °F /  2.7 °C 30.10in /  1019.2hPa NNE 2.0mph /  3.2km/h 8.0mph /  12.9km/h 53% 0.00in /  0mm
09:44 54.3 °F /  12.4 °C 36.1 °F /  2.3 °C 30.10in /  1019.2hPa North 1.0mph /  1.6km/h 8.0mph /  12.9km/h 50% 0.00in /  0mm
09:49 54.3 °F /  12.4 °C 36.1 °F /  2.3 °C 30.10in /  1019.2hPa North 2.0mph /  3.2km/h 8.0mph /  12.9km/h 50% 0.00in /  0mm
09:54 54.6 °F /  12.6 °C 35.3 °F /  1.8 °C 30.10in /  1019.2hPa NNE 3.0mph /  4.8km/h 8.0mph /  12.9km/h 48% 0.00in /  0mm
09:59 54.8 °F /  12.7 °C 36.0 °F /  2.2 °C 30.10in /  1019.2hPa North 4.0mph /  6.4km/h 9.0mph /  14.5km/h 49% 0.00in /  0mm
10:05 55.1 °F /  12.8 °C 36.8 °F /  2.7 °C 30.10in /  1019.2hPa North 6.0mph /  9.7km/h 12.0mph /  19.3km/h 50% 0.00in /  0mm
10:14 55.1 °F /  12.8 °C 36.8 °F /  2.7 °C 30.09in /  1018.8hPa NW 5.0mph /  8km/h 11.0mph /  17.7km/h 50% 0.00in /  0mm
10:19 55.1 °F /  12.8 °C 36.8 °F /  2.7 °C 30.10in /  1019.2hPa NNW 2.0mph /  3.2km/h 10.0mph /  16.1km/h 50% 0.00in /  0mm
10:24 55.8 °F /  13.2 °C 36.9 °F /  2.7 °C 30.10in /  1019.2hPa North 2.0mph /  3.2km/h 8.0mph /  12.9km/h 49% 0.00in /  0mm
10:29 56.0 °F /  13.3 °C 36.6 °F /  2.6 °C 30.10in /  1019.2hPa NNW 4.0mph /  6.4km/h 8.0mph /  12.9km/h 48% 0.00in /  0mm
10:34 56.1 °F /  13.4 °C 37.7 °F /  3.2 °C 30.09in /  1018.8hPa NNW 3.0mph /  4.8km/h 9.0mph /  14.5km/h 50% 0.00in /  0mm
10:40 56.2 °F /  13.4 °C 36.8 °F /  2.7 °C 30.09in /  1018.8hPa NNW 5.0mph /  8km/h 9.0mph /  14.5km/h 48% 0.00in /  0mm
10:50 57.0 °F /  13.9 °C 38.6 °F /  3.7 °C 30.09in /  1018.8hPa NNW 4.0mph /  6.4km/h 12.0mph /  19.3km/h 50% 0.00in /  0mm
10:59 57.0 °F /  13.9 °C 39.1 °F /  3.9 °C 30.09in /  1018.8hPa North 4.0mph /  6.4km/h 13.0mph /  20.9km/h 51% 0.00in /  0mm
11:04 57.4 °F /  14.1 °C 37.3 °F /  2.9 °C 30.09in /  1018.8hPa NNW 3.0mph /  4.8km/h 13.0mph /  20.9km/h 47% 0.00in /  0mm
11:09 57.4 °F /  14.1 °C 39.4 °F /  4.1 °C 30.09in /  1018.8hPa North 4.0mph /  6.4km/h 10.0mph /  16.1km/h 51% 0.00in /  0mm
11:14 57.8 °F /  14.3 °C 39.3 °F /  4.1 °C 30.09in /  1018.8hPa NNW 3.0mph /  4.8km/h 9.0mph /  14.5km/h 50% 0.00in /  0mm
11:19 57.7 °F /  14.3 °C 39.2 °F /  4 °C 30.09in /  1018.8hPa NNW 5.0mph /  8km/h 11.0mph /  17.7km/h 50% 0.00in /  0mm
11:24 58.0 °F /  14.4 °C 39.0 °F /  3.9 °C 30.09in /  1018.8hPa North 3.0mph /  4.8km/h 11.0mph /  17.7km/h 49% 0.00in /  0mm
11:29 57.1 °F /  13.9 °C 38.6 °F /  3.7 °C 30.08in /  1018.5hPa NW 6.0mph /  9.7km/h 13.0mph /  20.9km/h 50% 0.00in /  0mm
11:35 56.8 °F /  13.8 °C 39.9 °F /  4.4 °C 30.08in /  1018.5hPa NNW 6.0mph /  9.7km/h 15.0mph /  24.1km/h 53% 0.00in /  0mm
11:44 56.9 °F /  13.8 °C 38.5 °F /  3.6 °C 30.08in /  1018.5hPa NW 10.0mph /  16.1km/h 15.0mph /  24.1km/h 50% 0.00in /  0mm
11:49 56.8 °F /  13.8 °C 40.3 °F /  4.6 °C 30.08in /  1018.5hPa North 5.0mph /  8km/h 15.0mph /  24.1km/h 54% 0.00in /  0mm
11:54 57.2 °F /  14 °C 39.2 °F /  4 °C 30.08in /  1018.5hPa NNW 6.0mph /  9.7km/h 14.0mph /  22.5km/h 51% 0.00in /  0mm
11:59 57.3 °F /  14.1 °C 39.8 °F /  4.3 °C 30.07in /  1018.2hPa NNW 6.0mph /  9.7km/h 14.0mph /  22.5km/h 52% 0.00in /  0mm
12:04 57.3 °F /  14.1 °C 39.8 °F /  4.3 °C 30.07in /  1018.2hPa North 3.0mph /  4.8km/h 13.0mph /  20.9km/h 52% 0.00in /  0mm
12:09 58.2 °F /  14.6 °C 40.7 °F /  4.8 °C 30.07in /  1018.2hPa North 4.0mph /  6.4km/h 13.0mph /  20.9km/h 52% 0.00in /  0mm
12:14 59.0 °F /  15 °C 41.4 °F /  5.2 °C 30.07in /  1018.2hPa NW 6.0mph /  9.7km/h 12.0mph /  19.3km/h 52% 0.00in /  0mm
12:19 59.0 °F /  15 °C 41.4 °F /  5.2 °C 30.07in /  1018.2hPa NNW 8.0mph /  12.9km/h 14.0mph /  22.5km/h 52% 0.00in /  0mm
12:24 59.0 °F /  15 °C 40.4 °F /  4.7 °C 30.07in /  1018.2hPa NNW 6.0mph /  9.7km/h 14.0mph /  22.5km/h 50% 0.00in /  0mm
12:29 59.0 °F /  15 °C 42.4 °F /  5.8 °C 30.06in /  1017.8hPa NNE 4.0mph /  6.4km/h 14.0mph /  22.5km/h 54% 0.00in /  0mm
12:35 60.0 °F /  15.6 °C 41.3 °F /  5.2 °C 30.06in /  1017.8hPa NNW 6.0mph /  9.7km/h 12.0mph /  19.3km/h 50% 0.00in /  0mm
12:44 59.8 °F /  15.4 °C 43.1 °F /  6.2 °C 30.07in /  1018.2hPa North 5.0mph /  8km/h 14.0mph /  22.5km/h 54% 0.00in /  0mm
12:49 60.3 °F /  15.7 °C 44.1 °F /  6.7 °C 30.06in /  1017.8hPa NNW 4.0mph /  6.4km/h 11.0mph /  17.7km/h 55% 0.00in /  0mm
12:54 60.4 °F /  15.8 °C 43.7 °F /  6.5 °C 30.06in /  1017.8hPa NNW 7.0mph /  11.3km/h 13.0mph /  20.9km/h 54% 0.00in /  0mm
12:59 59.8 °F /  15.4 °C 41.6 °F /  5.3 °C 30.07in /  1018.2hPa NW 10.0mph /  16.1km/h 16.0mph /  25.7km/h 51% 0.00in /  0mm
13:04 59.4 °F /  15.2 °C 42.3 °F /  5.7 °C 30.06in /  1017.8hPa NNW 6.0mph /  9.7km/h 16.0mph /  25.7km/h 53% 0.00in /  0mm
13:10 60.0 °F /  15.6 °C 42.8 °F /  6 °C 30.06in /  1017.8hPa NNW 5.0mph /  8km/h 15.0mph /  24.1km/h 53% 0.00in /  0mm
13:19 60.1 °F /  15.6 °C 41.4 °F /  5.2 °C 30.06in /  1017.8hPa NNW 10.0mph /  16.1km/h 18.0mph /  29km/h 50% 0.00in /  0mm
13:24 60.1 °F /  15.6 °C 42.4 °F /  5.8 °C 30.06in /  1017.8hPa North 6.0mph /  9.7km/h 18.0mph /  29km/h 52% 0.00in /  0mm
13:29 60.5 °F /  15.8 °C 42.8 °F /  6 °C 30.06in /  1017.8hPa NNW 8.0mph /  12.9km/h 19.0mph /  30.6km/h 52% 0.00in /  0mm
13:34 60.7 °F /  15.9 °C 42.5 °F /  5.8 °C 30.06in /  1017.8hPa North 6.0mph /  9.7km/h 19.0mph /  30.6km/h 51% 0.00in /  0mm
13:39 60.8 °F /  16 °C 43.1 °F /  6.2 °C 30.06in /  1017.8hPa NNW 9.0mph /  14.5km/h 14.0mph /  22.5km/h 52% 0.00in /  0mm
13:44 60.8 °F /  16 °C 42.6 °F /  5.9 °C 30.06in /  1017.8hPa North 7.0mph /  11.3km/h 15.0mph /  24.1km/h 51% 0.00in /  0mm
13:49 61.2 °F /  16.2 °C 43.4 °F /  6.3 °C 30.06in /  1017.8hPa North 6.0mph /  9.7km/h 15.0mph /  24.1km/h 52% 0.00in /  0mm
13:54 61.7 °F /  16.5 °C 42.4 °F /  5.8 °C 30.06in /  1017.8hPa North 4.0mph /  6.4km/h 13.0mph /  20.9km/h 49% 0.00in /  0mm
13:59 61.8 °F /  16.6 °C 44.5 °F /  6.9 °C 30.06in /  1017.8hPa North 6.0mph /  9.7km/h 18.0mph /  29km/h 53% 0.00in /  0mm
14:04 62.2 °F /  16.8 °C 44.4 °F /  6.9 °C 30.06in /  1017.8hPa NNW 7.0mph /  11.3km/h 18.0mph /  29km/h 52% 0.00in /  0mm
14:09 61.7 °F /  16.5 °C 44.9 °F /  7.2 °C 30.06in /  1017.8hPa NNW 8.0mph /  12.9km/h 16.0mph /  25.7km/h 54% 0.00in /  0mm
14:14 62.0 °F /  16.7 °C 43.2 °F /  6.2 °C 30.06in /  1017.8hPa NNW 8.0mph /  12.9km/h 16.0mph /  25.7km/h 50% 0.00in /  0mm
14:19 62.4 °F /  16.9 °C 43.5 °F /  6.4 °C 30.06in /  1017.8hPa North 6.0mph /  9.7km/h 16.0mph /  25.7km/h 50% 0.00in /  0mm
14:24 62.5 °F /  16.9 °C 43.6 °F /  6.4 °C 30.06in /  1017.8hPa NNW 7.0mph /  11.3km/h 16.0mph /  25.7km/h 50% 0.00in /  0mm
14:29 62.8 °F /  17.1 °C 44.4 °F /  6.9 °C 30.06in /  1017.8hPa NNW 10.0mph /  16.1km/h 20.0mph /  32.2km/h 51% 0.00in /  0mm
14:34 63.0 °F /  17.2 °C 44.1 °F /  6.7 °C 30.06in /  1017.8hPa NNW 6.0mph /  9.7km/h 20.0mph /  32.2km/h 50% 0.00in /  0mm
14:39 62.2 °F /  16.8 °C 43.3 °F /  6.3 °C 30.06in /  1017.8hPa NNW 10.0mph /  16.1km/h 21.0mph /  33.8km/h 50% 0.00in /  0mm
14:44 62.4 °F /  16.9 °C 44.6 °F /  7 °C 30.06in /  1017.8hPa NNE 5.0mph /  8km/h 21.0mph /  33.8km/h 52% 0.00in /  0mm
14:49 63.6 °F /  17.6 °C 43.6 °F /  6.4 °C 30.06in /  1017.8hPa NNW 8.0mph /  12.9km/h 16.0mph /  25.7km/h 48% 0.00in /  0mm
14:54 64.0 °F /  17.8 °C 45.5 °F /  7.5 °C 30.06in /  1017.8hPa North 5.0mph /  8km/h 16.0mph /  25.7km/h 51% 0.00in /  0mm
14:59 64.1 °F /  17.8 °C 45.1 °F /  7.3 °C 30.06in /  1017.8hPa NNW 5.0mph /  8km/h 16.0mph /  25.7km/h 50% 0.00in /  0mm
15:04 64.1 °F /  17.8 °C 43.5 °F /  6.4 °C 30.06in /  1017.8hPa NNW 6.0mph /  9.7km/h 16.0mph /  25.7km/h 47% 0.00in /  0mm
15:09 63.9 °F /  17.7 °C 43.8 °F /  6.6 °C 30.06in /  1017.8hPa North 7.0mph /  11.3km/h 15.0mph /  24.1km/h 48% 0.00in /  0mm
15:14 64.1 °F /  17.8 °C 44.6 °F /  7 °C 30.05in /  1017.5hPa North 6.0mph /  9.7km/h 14.0mph /  22.5km/h 49% 0.00in /  0mm
15:19 64.3 °F /  17.9 °C 44.7 °F /  7.1 °C 30.06in /  1017.8hPa NNE 6.0mph /  9.7km/h 14.0mph /  22.5km/h 49% 0.00in /  0mm
15:24 64.0 °F /  17.8 °C 45.5 °F /  7.5 °C 30.05in /  1017.5hPa NNW 4.0mph /  6.4km/h 14.0mph /  22.5km/h 51% 0.00in /  0mm
15:29 63.7 °F /  17.6 °C 44.7 °F /  7.1 °C 30.05in /  1017.5hPa North 7.0mph /  11.3km/h 13.0mph /  20.9km/h 50% 0.00in /  0mm
15:34 64.1 °F /  17.8 °C 45.1 °F /  7.3 °C 30.05in /  1017.5hPa North 7.0mph /  11.3km/h 15.0mph /  24.1km/h 50% 0.00in /  0mm
15:39 64.6 °F /  18.1 °C 46.1 °F /  7.8 °C 30.05in /  1017.5hPa NNW 6.0mph /  9.7km/h 15.0mph /  24.1km/h 51% 0.00in /  0mm
15:44 64.7 °F /  18.2 °C 45.1 °F /  7.3 °C 30.05in /  1017.5hPa North 5.0mph /  8km/h 15.0mph /  24.1km/h 49% 0.00in /  0mm
15:49 64.5 °F /  18.1 °C 46.0 °F /  7.8 °C 30.05in /  1017.5hPa North 5.0mph /  8km/h 12.0mph /  19.3km/h 51% 0.00in /  0mm
15:54 64.7 °F /  18.2 °C 45.6 °F /  7.6 °C 30.05in /  1017.5hPa NNW 4.0mph /  6.4km/h 12.0mph /  19.3km/h 50% 0.00in /  0mm
15:59 65.3 °F /  18.5 °C 43.4 °F /  6.3 °C 30.05in /  1017.5hPa NNE 9.0mph /  14.5km/h 14.0mph /  22.5km/h 45% 0.00in /  0mm
16:04 65.6 °F /  18.7 °C 45.4 °F /  7.4 °C 30.05in /  1017.5hPa North 6.0mph /  9.7km/h 14.0mph /  22.5km/h 48% 0.00in /  0mm
16:09 65.9 °F /  18.8 °C 44.6 °F /  7 °C 30.05in /  1017.5hPa NNE 5.0mph /  8km/h 14.0mph /  22.5km/h 46% 0.00in /  0mm
16:14 64.9 °F /  18.3 °C 44.2 °F /  6.8 °C 30.05in /  1017.5hPa North 5.0mph /  8km/h 14.0mph /  22.5km/h 47% 0.00in /  0mm
16:19 64.9 °F /  18.3 °C 44.2 °F /  6.8 °C 30.05in /  1017.5hPa North 5.0mph /  8km/h 16.0mph /  25.7km/h 47% 0.00in /  0mm
16:24 65.2 °F /  18.4 °C 43.3 °F /  6.3 °C 30.05in /  1017.5hPa North 7.0mph /  11.3km/h 17.0mph /  27.4km/h 45% 0.00in /  0mm
16:29 64.5 °F /  18.1 °C 42.7 °F /  5.9 °C 30.05in /  1017.5hPa NNE 6.0mph /  9.7km/h 17.0mph /  27.4km/h 45% 0.00in /  0mm
16:34 63.9 °F /  17.7 °C 44.4 °F /  6.9 °C 30.05in /  1017.5hPa North 4.0mph /  6.4km/h 16.0mph /  25.7km/h 49% 0.00in /  0mm
16:39 63.3 °F /  17.4 °C 43.8 °F /  6.6 °C 30.05in /  1017.5hPa NE 2.0mph /  3.2km/h 13.0mph /  20.9km/h 49% 0.00in /  0mm
16:44 63.3 °F /  17.4 °C 42.7 °F /  5.9 °C 30.05in /  1017.5hPa NNE 3.0mph /  4.8km/h 13.0mph /  20.9km/h 47% 0.00in /  0mm
16:49 63.1 °F /  17.3 °C 43.1 °F /  6.2 °C 30.05in /  1017.5hPa NNE 3.0mph /  4.8km/h 11.0mph /  17.7km/h 48% 0.00in /  0mm
16:54 63.0 °F /  17.2 °C 44.1 °F /  6.7 °C 30.05in /  1017.5hPa NNE 3.0mph /  4.8km/h 12.0mph /  19.3km/h 50% 0.00in /  0mm
16:59 63.1 °F /  17.3 °C 43.1 °F /  6.2 °C 30.05in /  1017.5hPa NNE 4.0mph /  6.4km/h 12.0mph /  19.3km/h 48% 0.00in /  0mm
17:04 63.1 °F /  17.3 °C 43.6 °F /  6.4 °C 30.05in /  1017.5hPa NNE 2.0mph /  3.2km/h 12.0mph /  19.3km/h 49% 0.00in /  0mm
17:09 63.5 °F /  17.5 °C 43.5 °F /  6.4 °C 30.05in /  1017.5hPa NNE 5.0mph /  8km/h 11.0mph /  17.7km/h 48% 0.00in /  0mm
17:14 63.5 °F /  17.5 °C 41.8 °F /  5.4 °C 30.05in /  1017.5hPa NNE 6.0mph /  9.7km/h 16.0mph /  25.7km/h 45% 0.00in /  0mm
17:19 63.4 °F /  17.4 °C 42.3 °F /  5.7 °C 30.05in /  1017.5hPa NNE 3.0mph /  4.8km/h 16.0mph /  25.7km/h 46% 0.00in /  0mm
17:24 63.7 °F /  17.6 °C 41.4 °F /  5.2 °C 30.05in /  1017.5hPa NNE 7.0mph /  11.3km/h 13.0mph /  20.9km/h 44% 0.00in /  0mm
17:29 63.6 °F /  17.6 °C 42.5 °F /  5.8 °C 30.05in /  1017.5hPa NE 2.0mph /  3.2km/h 13.0mph /  20.9km/h 46% 0.00in /  0mm
17:35 63.9 °F /  17.7 °C 41.6 °F /  5.3 °C 30.05in /  1017.5hPa NNE 5.0mph /  8km/h 13.0mph /  20.9km/h 44% 0.00in /  0mm
17:39 63.9 °F /  17.7 °C 42.2 °F /  5.7 °C 30.05in /  1017.5hPa NE 5.0mph /  8km/h 14.0mph /  22.5km/h 45% 0.00in /  0mm
17:44 64.0 °F /  17.8 °C 41.7 °F /  5.4 °C 30.05in /  1017.5hPa NE 6.0mph /  9.7km/h 14.0mph /  22.5km/h 44% 0.00in /  0mm
17:49 64.4 °F /  18 °C 41.4 °F /  5.2 °C 30.05in /  1017.5hPa NNE 5.0mph /  8km/h 14.0mph /  22.5km/h 43% 0.00in /  0mm
17:54 64.1 °F /  17.8 °C 41.2 °F /  5.1 °C 30.05in /  1017.5hPa NE 4.0mph /  6.4km/h 14.0mph /  22.5km/h 43% 0.00in /  0mm
17:59 63.6 °F /  17.6 °C 41.3 °F /  5.2 °C 30.05in /  1017.5hPa NNE 7.0mph /  11.3km/h 14.0mph /  22.5km/h 44% 0.00in /  0mm
18:04 63.7 °F /  17.6 °C 42.0 °F /  5.6 °C 30.05in /  1017.5hPa NE 3.0mph /  4.8km/h 13.0mph /  20.9km/h 45% 0.00in /  0mm
18:09 64.3 °F /  17.9 °C 42.5 °F /  5.8 °C 30.05in /  1017.5hPa NE 4.0mph /  6.4km/h 11.0mph /  17.7km/h 45% 0.00in /  0mm
18:14 64.6 °F /  18.1 °C 42.8 °F /  6 °C 30.05in /  1017.5hPa NNE 3.0mph /  4.8km/h 11.0mph /  17.7km/h 45% 0.00in /  0mm
18:19 64.4 °F /  18 °C 41.4 °F /  5.2 °C 30.05in /  1017.5hPa NE 6.0mph /  9.7km/h 14.0mph /  22.5km/h 43% 0.00in /  0mm
18:24 63.9 °F /  17.7 °C 41.6 °F /  5.3 °C 30.05in /  1017.5hPa ENE 5.0mph /  8km/h 14.0mph /  22.5km/h 44% 0.00in /  0mm
18:29 63.5 °F /  17.5 °C 41.8 °F /  5.4 °C 30.05in /  1017.5hPa NNE 6.0mph /  9.7km/h 18.0mph /  29km/h 45% 0.00in /  0mm
18:34 63.3 °F /  17.4 °C 41.0 °F /  5 °C 30.05in /  1017.5hPa NE 5.0mph /  8km/h 18.0mph /  29km/h 44% 0.00in /  0mm
18:40 63.2 °F /  17.3 °C 40.9 °F /  4.9 °C 30.06in /  1017.8hPa NE 3.0mph /  4.8km/h 12.0mph /  19.3km/h 44% 0.00in /  0mm
18:49 62.8 °F /  17.1 °C 40.6 °F /  4.8 °C 30.06in /  1017.8hPa NE 5.0mph /  8km/h 13.0mph /  20.9km/h 44% 0.00in /  0mm
18:54 62.4 °F /  16.9 °C 40.8 °F /  4.9 °C 30.06in /  1017.8hPa NE 2.0mph /  3.2km/h 13.0mph /  20.9km/h 45% 0.00in /  0mm
18:59 61.7 °F /  16.5 °C 40.7 °F /  4.8 °C 30.06in /  1017.8hPa North 1.0mph /  1.6km/h 13.0mph /  20.9km/h 46% 0.00in /  0mm
19:04 61.3 °F /  16.3 °C 40.9 °F /  4.9 °C 30.06in /  1017.8hPa NE 4.0mph /  6.4km/h 11.0mph /  17.7km/h 47% 0.00in /  0mm
19:09 61.3 °F /  16.3 °C 40.9 °F /  4.9 °C 30.06in /  1017.8hPa ENE 2.0mph /  3.2km/h 11.0mph /  17.7km/h 47% 0.00in /  0mm
19:14 61.2 °F /  16.2 °C 41.4 °F /  5.2 °C 30.07in /  1018.2hPa NE 2.0mph /  3.2km/h 9.0mph /  14.5km/h 48% 0.00in /  0mm
19:19 61.0 °F /  16.1 °C 40.6 °F /  4.8 °C 30.07in /  1018.2hPa NE 2.0mph /  3.2km/h 9.0mph /  14.5km/h 47% 0.00in /  0mm
19:24 60.5 °F /  15.8 °C 40.2 °F /  4.6 °C 30.07in /  1018.2hPa East 5.0mph /  8km/h 11.0mph /  17.7km/h 47% 0.00in /  0mm
19:29 60.3 °F /  15.7 °C 40.5 °F /  4.7 °C 30.07in /  1018.2hPa NE 4.0mph /  6.4km/h 11.0mph /  17.7km/h 48% 0.00in /  0mm
19:34 60.2 °F /  15.7 °C 41.0 °F /  5 °C 30.07in /  1018.2hPa NE 3.0mph /  4.8km/h 9.0mph /  14.5km/h 49% 0.00in /  0mm
19:39 60.2 °F /  15.7 °C 40.4 °F /  4.7 °C 30.07in /  1018.2hPa NE 3.0mph /  4.8km/h 9.0mph /  14.5km/h 48% 0.00in /  0mm
19:44 59.8 °F /  15.4 °C 40.6 °F /  4.8 °C 30.07in /  1018.2hPa ENE 2.0mph /  3.2km/h 10.0mph /  16.1km/h 49% 0.00in /  0mm
19:49 59.5 °F /  15.3 °C 40.9 °F /  4.9 °C 30.07in /  1018.2hPa NNE 3.0mph /  4.8km/h 10.0mph /  16.1km/h 50% 0.00in /  0mm
19:54 59.0 °F /  15 °C 40.4 °F /  4.7 °C 30.07in /  1018.2hPa NNE 1.0mph /  1.6km/h 8.0mph /  12.9km/h 50% 0.00in /  0mm
19:59 58.8 °F /  14.9 °C 40.7 °F /  4.8 °C 30.07in /  1018.2hPa NNE 2.0mph /  3.2km/h 7.0mph /  11.3km/h 51% 0.00in /  0mm
20:04 58.4 °F /  14.7 °C 40.9 °F /  4.9 °C 30.06in /  1017.8hPa NNE 3.0mph /  4.8km/h 11.0mph /  17.7km/h 52% 0.00in /  0mm
20:09 58.1 °F /  14.5 °C 40.6 °F /  4.8 °C 30.07in /  1018.2hPa NNE 1.0mph /  1.6km/h 11.0mph /  17.7km/h 52% 0.00in /  0mm
20:14 57.7 °F /  14.3 °C 40.7 °F /  4.8 °C 30.07in /  1018.2hPa NE 2.0mph /  3.2km/h 10.0mph /  16.1km/h 53% 0.00in /  0mm
20:19 57.4 °F /  14.1 °C 40.4 °F /  4.7 °C 30.07in /  1018.2hPa NNE 3.0mph /  4.8km/h 10.0mph /  16.1km/h 53% 0.00in /  0mm
20:24 57.1 °F /  13.9 °C 40.6 °F /  4.8 °C 30.07in /  1018.2hPa NE 4.0mph /  6.4km/h 9.0mph /  14.5km/h 54% 0.00in /  0mm
20:30 56.9 °F /  13.8 °C 40.4 °F /  4.7 °C 30.07in /  1018.2hPa Calm   7.0mph /  11.3km/h 54% 0.00in /  0mm
20:35 56.5 °F /  13.6 °C 40.5 °F /  4.7 °C 30.07in /  1018.2hPa Calm   4.0mph /  6.4km/h 55% 0.00in /  0mm
20:39 56.2 °F /  13.4 °C 40.7 °F /  4.8 °C 30.07in /  1018.2hPa NE 1.0mph /  1.6km/h 5.0mph /  8km/h 56% 0.00in /  0mm
20:44 55.9 °F /  13.3 °C 40.4 °F /  4.7 °C 30.07in /  1018.2hPa NNE 2.0mph /  3.2km/h 8.0mph /  12.9km/h 56% 0.00in /  0mm
20:49 55.7 °F /  13.2 °C 40.7 °F /  4.8 °C 30.08in /  1018.5hPa NNE 2.0mph /  3.2km/h 8.0mph /  12.9km/h 57% 0.00in /  0mm
20:54 55.3 °F /  12.9 °C 40.3 °F /  4.6 °C 30.08in /  1018.5hPa NNE 2.0mph /  3.2km/h 5.0mph /  8km/h 57% 0.00in /  0mm
20:59 54.9 °F /  12.7 °C 40.4 °F /  4.7 °C 30.08in /  1018.5hPa NE 1.0mph /  1.6km/h 7.0mph /  11.3km/h 58% 0.00in /  0mm
21:04 54.6 °F /  12.6 °C 40.6 °F /  4.8 °C 30.08in /  1018.5hPa NNE 1.0mph /  1.6km/h 7.0mph /  11.3km/h 59% 0.00in /  0mm
21:09 54.2 °F /  12.3 °C 40.2 °F /  4.6 °C 30.08in /  1018.5hPa NNE 1.0mph /  1.6km/h 7.0mph /  11.3km/h 59% 0.00in /  0mm
21:14 54.0 °F /  12.2 °C 40.4 °F /  4.7 °C 30.08in /  1018.5hPa NE 1.0mph /  1.6km/h 7.0mph /  11.3km/h 60% 0.00in /  0mm
21:19 53.7 °F /  12.1 °C 40.6 °F /  4.8 °C 30.08in /  1018.5hPa Calm   3.0mph /  4.8km/h 61% 0.00in /  0mm
21:24 53.3 °F /  11.8 °C 40.2 °F /  4.6 °C 30.09in /  1018.8hPa Calm   3.0mph /  4.8km/h 61% 0.00in /  0mm
21:29 52.9 °F /  11.6 °C 40.2 °F /  4.6 °C 30.09in /  1018.8hPa Calm   2.0mph /  3.2km/h 62% 0.00in /  0mm
21:34 52.4 °F /  11.3 °C 40.2 °F /  4.6 °C 30.10in /  1019.2hPa Calm   2.0mph /  3.2km/h 63% 0.00in /  0mm
21:39 52.1 °F /  11.2 °C 40.3 °F /  4.6 °C 30.09in /  1018.8hPa NE 1.0mph /  1.6km/h 2.0mph /  3.2km/h 64% 0.00in /  0mm
21:44 51.7 °F /  10.9 °C 40.3 °F /  4.6 °C 30.10in /  1019.2hPa NE 1.0mph /  1.6km/h 3.0mph /  4.8km/h 65% 0.00in /  0mm
21:49 51.3 °F /  10.7 °C 40.7 °F /  4.8 °C 30.10in /  1019.2hPa Calm   3.0mph /  4.8km/h 67% 0.00in /  0mm
21:54 50.7 °F /  10.4 °C 40.1 °F /  4.5 °C 30.10in /  1019.2hPa Calm   2.0mph /  3.2km/h 67% 0.00in /  0mm
21:59 50.5 °F /  10.3 °C 40.3 °F /  4.6 °C 30.09in /  1018.8hPa Calm   4.0mph /  6.4km/h 68% 0.00in /  0mm
22:04 50.6 °F /  10.3 °C 40.8 °F /  4.9 °C 30.09in /  1018.8hPa Calm   4.0mph /  6.4km/h 69% 0.00in /  0mm
22:09 50.5 °F /  10.3 °C 40.7 °F /  4.8 °C 30.10in /  1019.2hPa Calm   3.0mph /  4.8km/h 69% 0.00in /  0mm
22:14 50.3 °F /  10.2 °C 40.5 °F /  4.7 °C 30.10in /  1019.2hPa Calm   3.0mph /  4.8km/h 69% 0.00in /  0mm
22:19 50.4 °F /  10.2 °C 40.2 °F /  4.6 °C 30.10in /  1019.2hPa Calm   3.0mph /  4.8km/h 68% 0.00in /  0mm
22:24 50.3 °F /  10.2 °C 40.5 °F /  4.7 °C 30.10in /  1019.2hPa NE 1.0mph /  1.6km/h 2.0mph /  3.2km/h 69% 0.00in /  0mm
22:29 50.3 °F /  10.2 °C 40.5 °F /  4.7 °C 30.10in /  1019.2hPa NE 1.0mph /  1.6km/h 3.0mph /  4.8km/h 69% 0.00in /  0mm
22:35 50.3 °F /  10.2 °C 40.5 °F /  4.7 °C 30.10in /  1019.2hPa NE 2.0mph /  3.2km/h 5.0mph /  8km/h 69% 0.00in /  0mm
22:39 50.6 °F /  10.3 °C 40.4 °F /  4.7 °C 30.10in /  1019.2hPa ENE 1.0mph /  1.6km/h 7.0mph /  11.3km/h 68% 0.00in /  0mm
22:44 51.0 °F /  10.6 °C 40.8 °F /  4.9 °C 30.10in /  1019.2hPa East 1.0mph /  1.6km/h 7.0mph /  11.3km/h 68% 0.00in /  0mm
22:49 51.3 °F /  10.7 °C 41.1 °F /  5.1 °C 30.10in /  1019.2hPa East 2.0mph /  3.2km/h 5.0mph /  8km/h 68% 0.00in /  0mm
22:55 51.3 °F /  10.7 °C 40.7 °F /  4.8 °C 30.10in /  1019.2hPa NNE 2.0mph /  3.2km/h 5.0mph /  8km/h 67% 0.00in /  0mm
22:59 51.1 °F /  10.6 °C 40.5 °F /  4.7 °C 30.10in /  1019.2hPa NNE 2.0mph /  3.2km/h 6.0mph /  9.7km/h 67% 0.00in /  0mm
23:04 50.9 °F /  10.5 °C 40.7 °F /  4.8 °C 30.10in /  1019.2hPa NNE 1.0mph /  1.6km/h 6.0mph /  9.7km/h 68% 0.00in /  0mm
23:09 50.6 °F /  10.3 °C 40.8 °F /  4.9 °C 30.10in /  1019.2hPa ENE 2.0mph /  3.2km/h 6.0mph /  9.7km/h 69% 0.00in /  0mm
23:14 50.7 °F /  10.4 °C 40.9 °F /  4.9 °C 30.10in /  1019.2hPa NE 1.0mph /  1.6km/h 6.0mph /  9.7km/h 69% 0.00in /  0mm
23:19 50.7 °F /  10.4 °C 40.5 °F /  4.7 °C 30.10in /  1019.2hPa Calm   7.0mph /  11.3km/h 68% 0.00in /  0mm
23:24 50.5 °F /  10.3 °C 40.7 °F /  4.8 °C 30.10in /  1019.2hPa North 1.0mph /  1.6km/h 7.0mph /  11.3km/h 69% 0.00in /  0mm
23:29 50.2 °F /  10.1 °C 40.4 °F /  4.7 °C 30.10in /  1019.2hPa NE 1.0mph /  1.6km/h 4.0mph /  6.4km/h 69% 0.00in /  0mm
23:34 49.6 °F /  9.8 °C 40.2 °F /  4.6 °C 30.10in /  1019.2hPa Calm   3.0mph /  4.8km/h 70% 0.00in /  0mm
23:39 49.3 °F /  9.6 °C 40.3 °F /  4.6 °C 30.10in /  1019.2hPa Calm   1.0mph /  1.6km/h 71% 0.00in /  0mm
23:44 49.2 °F /  9.6 °C 40.2 °F /  4.6 °C 30.11in /  1019.5hPa NW 2.0mph /  3.2km/h 4.0mph /  6.4km/h 71% 0.00in /  0mm
23:49 49.0 °F /  9.4 °C 40.4 °F /  4.7 °C 30.11in /  1019.5hPa Calm   4.0mph /  6.4km/h 72% 0.00in /  0mm
23:54 49.6 °F /  9.8 °C 40.6 °F /  4.8 °C 30.11in /  1019.5hPa NNE 3.0mph /  4.8km/h 8.0mph /  12.9km/h 71% 0.00in /  0mm
23:59 50.0 °F /  10 °C 40.6 °F /  4.8 °C 30.11in /  1019.5hPa Calm   8.0mph /  12.9km/h 70% 0.00in /  0mm
Westford Weather
Compliments of Weather Underground

 
 
Current Radar Loop:

Copyright © WestfordWeather.net 2007-2014. All rights reserved.